Time;durP1;ratioP1;P1;durP2;ratioP2;P2;SDS_P1;SDS_P2;PMS_P1;PMS_P2;Temp;Humidity;BMP_temperature;BMP_pressure;BME280_temperature;BME280_humidity;BME280_pressure;Samples;Min_cycle;Max_cycle;Signal;HPM_P1;HPM_P2
2021/12/04 00:02:04;;;;;;;;;42.50;36.00;;;;;3.10;81.06;99300.31;5029454;28;8884;-74
2021/12/04 00:04:37;;;;;;;;;41.25;37.75;;;;;3.30;80.69;99300.84;5045038;28;8879;-74
2021/12/04 00:07:08;;;;;;;;;43.75;39.00;;;;;3.53;79.90;99306.53;5029528;28;8871;-74
2021/12/04 00:09:38;;;;;;;;;46.00;37.25;;;;;3.83;80.62;99302.94;5061421;28;8875;-74
2021/12/04 00:12:08;;;;;;;;;36.50;31.50;;;;;4.11;79.61;99304.41;5028196;28;8864;-73
2021/12/04 00:14:38;;;;;;;;;41.75;39.00;;;;;4.37;79.24;99299.81;5006681;28;8850;-72
2021/12/04 00:17:07;;;;;;;;;41.00;37.25;;;;;4.59;78.22;99308.81;4969237;28;8883;-73
2021/12/04 00:19:38;;;;;;;;;41.75;39.00;;;;;4.79;77.86;99300.59;4960633;28;8882;-72
2021/12/04 00:22:06;;;;;;;;;36.00;34.00;;;;;4.96;77.07;99295.75;5006898;28;9051;-74
2021/12/04 00:24:35;;;;;;;;;37.50;34.50;;;;;5.02;74.31;99293.25;5006604;28;8878;-73
2021/12/04 00:27:04;;;;;;;;;40.00;35.50;;;;;4.98;74.38;99294.91;5006453;28;8882;-72
2021/12/04 00:29:33;;;;;;;;;35.75;32.50;;;;;4.92;70.69;99300.00;4974172;28;8996;-74
2021/12/04 00:32:08;;;;;;;;;32.25;29.00;;;;;4.86;70.02;99298.16;4990456;28;8858;-73
2021/12/04 00:34:41;;;;;;;;;29.00;27.00;;;;;4.33;68.81;99292.84;4993323;28;8870;-75
2021/12/04 00:37:28;;;;;;;;;16.00;14.25;;;;;3.84;70.93;99295.25;5022901;28;8854;-72
2021/12/04 00:51:11;;;;;;;;;14.00;13.00;;;;;2.86;73.79;99303.16;4947848;28;8870;-76
2021/12/04 00:53:39;;;;;;;;;22.25;21.25;;;;;2.73;74.64;99302.81;4928617;29;8911;-73
2021/12/04 00:56:08;;;;;;;;;23.50;22.25;;;;;2.75;74.39;99295.16;4890723;29;8997;-76
2021/12/04 00:58:37;;;;;;;;;25.25;23.00;;;;;2.75;74.25;99296.88;4859852;29;8997;-73
2021/12/04 01:01:05;;;;;;;;;30.00;25.25;;;;;2.84;74.32;99305.69;4890890;29;8930;-75
2021/12/04 01:03:35;;;;;;;;;23.50;23.50;;;;;2.84;73.80;99290.25;4874552;29;8891;-76
2021/12/04 01:06:03;;;;;;;;;29.50;25.75;;;;;2.84;73.67;99289.38;4844391;29;8895;-75
2021/12/04 01:08:34;;;;;;;;;20.25;19.50;;;;;2.87;73.60;99300.63;4875608;29;9713;-72
2021/12/04 01:11:03;;;;;;;;;16.75;16.75;;;;;2.75;73.89;99304.59;4860128;29;8892;-74
2021/12/04 01:13:33;;;;;;;;;23.00;20.25;;;;;2.76;74.98;99293.44;4859573;29;8890;-76
2021/12/04 01:16:02;;;;;;;;;23.75;23.00;;;;;2.50;73.24;99301.34;4850634;29;8857;-73
2021/12/04 01:18:31;;;;;;;;;25.00;24.25;;;;;2.49;74.72;99297.00;4884326;29;8871;-72
2021/12/04 01:21:00;;;;;;;;;22.00;22.00;;;;;2.66;74.70;99289.75;4908699;29;8895;-72
2021/12/04 01:23:28;;;;;;;;;24.25;20.25;;;;;2.95;76.13;99280.22;4897055;29;8890;-73
2021/12/04 01:25:58;;;;;;;;;32.00;27.00;;;;;3.20;76.06;99283.44;4942561;28;8927;-74
2021/12/04 01:28:27;;;;;;;;;28.00;25.50;;;;;3.38;73.57;99286.41;4967066;28;9640;-73
2021/12/04 01:30:56;;;;;;;;;30.50;24.75;;;;;3.30;71.95;99288.81;4981315;28;8850;-74
2021/12/04 01:33:25;;;;;;;;;24.50;21.25;;;;;3.43;73.40;99278.81;4975083;28;8871;-74
2021/12/04 01:35:54;;;;;;;;;27.75;25.25;;;;;3.35;72.39;99272.63;5028042;28;8863;-75
2021/12/04 01:38:23;;;;;;;;;26.25;24.00;;;;;3.50;74.16;99265.25;5020687;28;8861;-73
2021/12/04 01:40:52;;;;;;;;;27.25;25.25;;;;;3.39;71.60;99271.84;5027282;28;8883;-73
2021/12/04 01:43:22;;;;;;;;;32.50;26.25;;;;;3.25;72.54;99271.50;5060305;28;8887;-72
2021/12/04 01:45:54;;;;;;;;;8.00;4.50;;;;;3.34;71.96;99268.28;5024811;28;8847;-73
2021/12/04 01:48:23;;;;;;;;;28.25;26.00;;;;;3.08;71.71;99269.41;4979706;28;8871;-73
2021/12/04 01:50:55;;;;;;;;;31.50;24.50;;;;;3.27;74.23;99269.84;5027920;28;8863;-75
2021/12/04 01:53:24;;;;;;;;;30.75;28.75;;;;;3.23;73.72;99273.16;5027262;28;8905;-76
2021/12/04 01:55:54;;;;;;;;;33.00;28.00;;;;;2.85;75.17;99278.22;5027901;28;8945;-74
2021/12/04 01:58:26;;;;;;;;;25.00;22.00;;;;;2.98;76.08;99271.69;5027723;28;8954;-72
2021/12/04 02:00:55;;;;;;;;;31.00;26.25;;;;;3.27;77.11;99275.88;5026335;28;8917;-73
2021/12/04 02:03:24;;;;;;;;;35.00;28.00;;;;;3.35;75.37;99254.59;5025653;28;8937;-74
2021/12/04 02:05:53;;;;;;;;;24.00;20.00;;;;;3.43;73.58;99247.88;4990384;28;13834;-73
2021/12/04 02:08:24;;;;;;;;;34.75;30.75;;;;;3.56;74.65;99241.31;5026960;28;8871;-74
2021/12/04 02:10:57;;;;;;;;;23.00;18.25;;;;;3.69;74.39;99245.91;5026415;28;8847;-75
2021/12/04 02:13:28;;;;;;;;;26.75;20.50;;;;;3.75;73.03;99238.28;5025437;28;8982;-73
2021/12/04 02:16:01;;;;;;;;;29.00;26.00;;;;;3.56;71.29;99244.75;5020154;28;9684;-73
2021/12/04 02:18:30;;;;;;;;;40.00;36.00;;;;;2.84;73.51;99253.34;5025667;28;8871;-75
2021/12/04 02:21:00;;;;;;;;;29.00;26.75;;;;;2.52;74.98;99254.22;5042750;28;8863;-73
2021/12/04 02:23:29;;;;;;;;;32.25;23.75;;;;;2.63;75.61;99246.78;5027589;28;8863;-74
2021/12/04 02:25:57;;;;;;;;;33.25;26.25;;;;;2.91;77.01;99248.38;5027608;28;8894;-74
2021/12/04 02:28:26;;;;;;;;;29.75;27.00;;;;;3.23;77.11;99242.25;5026158;28;8863;-73
2021/12/04 02:30:56;;;;;;;;;27.25;23.75;;;;;3.19;74.04;99251.63;5026538;28;8886;-74
2021/12/04 02:33:24;;;;;;;;;36.00;31.25;;;;;2.74;75.08;99249.63;5026762;28;9034;-73
2021/12/04 02:35:55;;;;;;;;;30.75;29.50;;;;;2.38;76.12;99252.97;5042854;28;8870;-73
2021/12/04 02:38:26;;;;;;;;;34.00;30.25;;;;;2.23;76.84;99249.97;5004935;28;8897;-73
2021/12/04 02:41:00;;;;;;;;;24.25;23.00;;;;;2.13;78.07;99244.56;5005220;28;8867;-72
2021/12/04 02:43:32;;;;;;;;;32.75;26.25;;;;;2.18;77.69;99247.28;4971559;28;8874;-75
2021/12/04 02:46:01;;;;;;;;;35.75;31.50;;;;;2.25;77.51;99243.16;5004849;28;8890;-73
2021/12/04 02:48:30;;;;;;;;;26.00;23.00;;;;;2.55;77.57;99230.25;4940937;28;8891;-72
2021/12/04 02:50:58;;;;;;;;;30.75;28.75;;;;;2.67;75.92;99229.72;4987949;28;8980;-73
2021/12/04 02:53:28;;;;;;;;;25.75;23.50;;;;;2.80;76.69;99229.22;4988509;28;8907;-73
2021/12/04 02:55:57;;;;;;;;;34.75;29.75;;;;;2.73;75.73;99230.75;5004810;28;9701;-73
2021/12/04 02:58:26;;;;;;;;;31.75;28.00;;;;;2.63;76.31;99228.78;5003769;28;8868;-72
2021/12/04 03:00:55;;;;;;;;;35.50;32.50;;;;;2.59;76.46;99219.22;4988459;28;8950;-76
2021/12/04 03:03:24;;;;;;;;;33.50;29.25;;;;;2.42;77.75;99223.03;4956410;28;8919;-74
2021/12/04 03:05:52;;;;;;;;;32.50;30.50;;;;;2.22;77.51;99220.81;5004913;28;8902;-75
2021/12/04 03:08:23;;;;;;;;;33.75;30.00;;;;;2.14;78.42;99218.03;5004561;28;8878;-73
2021/12/04 03:10:54;;;;;;;;;32.25;30.75;;;;;2.40;78.21;99214.41;5028446;28;8868;-75
2021/12/04 03:13:23;;;;;;;;;37.25;33.50;;;;;2.72;79.24;99218.72;5002265;28;9572;-73
2021/12/04 03:15:58;;;;;;;;;34.50;30.25;;;;;3.04;79.92;99208.31;5024357;28;8888;-75
2021/12/04 03:18:27;;;;;;;;;35.25;32.75;;;;;3.37;78.85;99204.81;5010769;28;8988;-74
2021/12/04 03:21:02;;;;;;;;;32.25;29.75;;;;;3.08;74.05;99205.00;5028820;28;8897;-73
2021/12/04 03:23:39;;;;;;;;;34.25;31.50;;;;;2.93;73.98;99220.09;5030189;28;9026;-74
2021/12/04 03:26:10;;;;;;;;;29.50;29.50;;;;;3.01;74.69;99208.25;5045720;28;8941;-73
2021/12/04 03:28:39;;;;;;;;;33.00;31.00;;;;;3.28;76.96;99210.59;5028938;28;8900;-74
2021/12/04 03:31:12;;;;;;;;;31.00;30.25;;;;;3.54;77.87;99209.47;5030093;28;8856;-75
2021/12/04 03:42:01;;;;;;;;;33.25;31.00;;;;;4.40;75.89;99183.69;5028627;28;8852;-73
2021/12/04 03:44:31;;;;;;;;;39.25;33.25;;;;;4.51;75.31;99178.72;5028855;28;8863;-72
2021/12/04 03:47:00;;;;;;;;;36.00;31.75;;;;;4.64;75.42;99170.34;5042831;28;8870;-75
2021/12/04 03:49:29;;;;;;;;;36.75;30.00;;;;;4.74;74.56;99170.50;5019716;28;8988;-73
2021/12/04 03:51:58;;;;;;;;;27.25;22.00;;;;;4.84;74.20;99164.66;5031554;28;8866;-73
2021/12/04 03:54:26;;;;;;;;;21.25;18.75;;;;;4.89;73.48;99165.56;5020681;28;8975;-73
2021/12/04 03:57:03;;;;;;;;;34.00;31.00;;;;;4.98;73.53;99164.88;4991546;28;9631;-75
2021/12/04 03:59:34;;;;;;;;;37.50;33.25;;;;;4.96;73.47;99163.97;5045232;28;8847;-74
2021/12/04 04:02:04;;;;;;;;;40.25;34.75;;;;;4.91;69.82;99150.97;5028182;28;8984;-75
2021/12/04 04:04:33;;;;;;;;;35.50;33.25;;;;;4.89;71.60;99153.53;5028677;28;8875;-75
2021/12/04 04:07:02;;;;;;;;;38.50;33.25;;;;;4.95;73.55;99147.59;5030020;28;8871;-74
2021/12/04 04:09:31;;;;;;;;;43.00;34.00;;;;;5.01;73.32;99147.69;5025720;28;8864;-73
2021/12/04 04:12:00;;;;;;;;;36.00;33.25;;;;;5.07;72.29;99157.25;5019266;28;8875;-73
2021/12/04 04:14:29;;;;;;;;;33.50;32.75;;;;;5.15;72.97;99153.06;5027922;28;8883;-74
2021/12/04 04:16:59;;;;;;;;;32.50;28.00;;;;;5.18;72.69;99150.53;5024386;28;8848;-73
2021/12/04 04:19:27;;;;;;;;;43.75;36.50;;;;;5.25;72.67;99151.47;5027539;28;8855;-73
2021/12/04 04:21:58;;;;;;;;;38.25;32.25;;;;;5.31;73.20;99156.72;5029531;28;8886;-74
2021/12/04 04:24:28;;;;;;;;;47.50;41.00;;;;;5.25;72.50;99167.00;5026910;28;9612;-73
2021/12/04 04:26:57;;;;;;;;;36.00;34.50;;;;;5.24;72.36;99162.69;5028640;28;8870;-74
2021/12/04 04:29:27;;;;;;;;;45.00;40.00;;;;;5.10;70.86;99162.47;5029380;28;8872;-73
2021/12/04 04:31:55;;;;;;;;;49.25;44.75;;;;;5.04;71.17;99162.38;5020949;28;8912;-73
2021/12/04 04:34:30;;;;;;;;;42.75;40.25;;;;;5.04;72.71;99157.19;5007037;28;8867;-72
2021/12/04 04:37:13;;;;;;;;;49.00;44.00;;;;;4.99;71.74;99153.66;5003389;28;8877;-75
2021/12/04 04:59:25;;;;;;;;;31.75;29.75;;;;;5.24;71.55;99158.38;4863160;29;8921;-76
2021/12/04 05:02:17;;;;;;;;;45.00;40.00;;;;;5.31;71.29;99163.63;4900104;29;8876;-73
2021/12/04 05:10:51;;;;;;;;;51.00;43.25;;;;;5.45;71.22;99178.50;4873474;29;8892;-73
2021/12/04 05:13:21;;;;;;;;;52.50;43.75;;;;;5.47;70.64;99181.97;4890575;29;8906;-74
2021/12/04 05:15:58;;;;;;;;;39.25;34.75;;;;;5.52;70.03;99171.69;4859330;29;8988;-76
2021/12/04 05:18:39;;;;;;;;;37.75;35.50;;;;;5.53;69.88;99165.66;4892667;28;8912;-72
2021/12/04 05:21:11;;;;;;;;;58.75;47.00;;;;;5.50;68.47;99164.75;4993390;28;8859;-73
2021/12/04 05:23:45;;;;;;;;;51.25;42.50;;;;;5.04;65.69;99170.13;4973062;28;9641;-71
2021/12/04 05:26:16;;;;;;;;;42.00;38.00;;;;;4.99;67.22;99174.34;4997399;28;8954;-73
2021/12/04 05:28:46;;;;;;;;;38.50;36.25;;;;;5.01;69.66;99162.31;5001257;28;8862;-73
2021/12/04 05:31:15;;;;;;;;;41.50;37.00;;;;;5.07;70.36;99142.63;4981330;28;8864;-74
2021/12/04 05:33:45;;;;;;;;;72.25;57.50;;;;;4.96;68.21;99143.31;4982068;28;8981;-74
2021/12/04 05:36:13;;;;;;;;;55.25;48.00;;;;;4.98;70.08;99146.78;5004511;28;8862;-75
2021/12/04 05:38:44;;;;;;;;;56.75;47.00;;;;;4.97;70.84;99143.34;5005787;28;8883;-73
2021/12/04 05:41:14;;;;;;;;;53.00;44.25;;;;;4.93;68.84;99141.53;4935459;28;8887;-74
2021/12/04 05:43:43;;;;;;;;;62.75;53.00;;;;;5.01;70.71;99132.19;4997954;28;8870;-73
2021/12/04 05:46:14;;;;;;;;;57.25;45.75;;;;;5.09;70.93;99134.91;5026487;28;8839;-74
2021/12/04 05:48:48;;;;;;;;;45.00;42.50;;;;;5.18;71.56;99153.13;5010305;28;8899;-76
2021/12/04 05:51:35;;;;;;;;;50.75;43.25;;;;;5.25;70.69;99152.38;4992290;28;8906;-74
2021/12/04 05:54:18;;;;;;;;;45.75;43.75;;;;;5.33;70.84;99142.13;5026075;28;8867;-73
2021/12/04 05:56:47;;;;;;;;;53.25;46.25;;;;;5.37;70.73;99133.56;5025360;28;8940;-73
2021/12/04 05:59:16;;;;;;;;;38.75;37.00;;;;;5.42;71.39;99124.13;5027340;28;8867;-73
2021/12/04 06:01:44;;;;;;;;;50.75;41.75;;;;;5.44;70.48;99112.13;5026036;28;9125;-73
2021/12/04 06:04:13;;;;;;;;;51.25;44.50;;;;;5.46;69.19;99110.44;5016511;28;8874;-74
2021/12/04 06:06:43;;;;;;;;;50.75;43.25;;;;;5.49;69.83;99108.72;5023358;28;8879;-74
2021/12/04 06:09:13;;;;;;;;;45.00;41.75;;;;;5.51;69.18;99120.81;5024707;28;8855;-73
2021/12/04 06:11:42;;;;;;;;;59.00;48.00;;;;;5.49;68.43;99122.50;5025528;28;8852;-74
2021/12/04 06:14:11;;;;;;;;;54.75;45.75;;;;;5.47;69.87;99131.97;5025604;28;8851;-73
2021/12/04 06:16:40;;;;;;;;;50.75;43.25;;;;;5.50;68.68;99129.44;5025429;28;8875;-73
2021/12/04 06:19:12;;;;;;;;;53.50;47.75;;;;;5.54;69.27;99130.31;4984752;28;12617;-76
2021/12/04 06:24:28;;;;;;;;;50.50;43.00;;;;;5.62;68.27;99118.38;5024102;28;8934;-74
2021/12/04 06:26:57;;;;;;;;;61.50;49.25;;;;;5.62;68.35;99120.97;5034431;28;8859;-75
2021/12/04 06:29:26;;;;;;;;;43.75;41.00;;;;;5.59;67.48;99129.53;5025613;28;8944;-74
2021/12/04 06:31:55;;;;;;;;;57.00;48.50;;;;;5.61;68.73;99132.13;5023857;28;8852;-75
2021/12/04 06:34:23;;;;;;;;;52.00;43.50;;;;;5.64;68.89;99132.19;5024243;28;8875;-74
2021/12/04 06:36:52;;;;;;;;;54.75;44.25;;;;;5.67;68.77;99127.03;4989055;28;8863;-76
2021/12/04 06:39:21;;;;;;;;;44.50;39.00;;;;;5.70;68.82;99123.63;5023327;28;8839;-74
2021/12/04 06:41:51;;;;;;;;;47.50;41.25;;;;;5.71;68.09;99126.25;5039984;28;8883;-74
2021/12/04 06:44:19;;;;;;;;;45.75;42.00;;;;;5.68;66.00;99117.56;5040548;28;8868;-73
2021/12/04 06:46:49;;;;;;;;;45.50;39.25;;;;;5.71;68.46;99112.41;5027333;28;8867;-74
2021/12/04 06:49:20;;;;;;;;;48.75;44.75;;;;;5.76;68.87;99116.81;5020340;28;8909;-76
2021/12/04 06:51:51;;;;;;;;;53.25;46.75;;;;;5.79;68.34;99116.84;5028442;28;8970;-72
2021/12/04 06:54:23;;;;;;;;;48.50;42.25;;;;;5.81;67.21;99114.28;5041258;28;8880;-75
2021/12/04 06:56:53;;;;;;;;;56.75;46.00;;;;;5.84;68.09;99117.78;5028705;28;8867;-73
2021/12/04 06:59:25;;;;;;;;;56.25;44.75;;;;;5.85;67.29;99116.91;5042984;28;8852;-73
2021/12/04 07:01:54;;;;;;;;;56.75;47.75;;;;;5.73;64.81;99115.91;5027413;28;9719;-74
2021/12/04 07:04:29;;;;;;;;;49.00;41.75;;;;;5.66;65.40;99117.56;5028021;28;8929;-73
2021/12/04 07:06:57;;;;;;;;;49.25;43.75;;;;;5.75;65.77;99116.81;5029475;28;8852;-72
2021/12/04 07:09:26;;;;;;;;;40.00;36.00;;;;;5.79;66.33;99122.03;5007603;28;8895;-72
2021/12/04 07:11:57;;;;;;;;;45.50;41.50;;;;;5.90;67.57;99118.69;5043829;28;9667;-74
2021/12/04 07:14:26;;;;;;;;;51.75;44.25;;;;;5.99;67.01;99127.47;5009915;28;8999;-74
2021/12/04 07:16:55;;;;;;;;;42.33;37.00;;;;;6.06;67.30;99118.03;5030577;28;8859;-76
2021/12/04 07:19:24;;;;;;;;;41.25;37.75;;;;;6.13;66.06;99118.97;5027837;28;8922;-76
2021/12/04 07:21:52;;;;;;;;;42.50;39.00;;;;;6.22;67.19;99113.91;5029990;28;8866;-75
2021/12/04 07:24:21;;;;;;;;;49.75;44.75;;;;;6.27;67.14;99116.53;5045627;28;8886;-74
2021/12/04 07:26:50;;;;;;;;;61.75;51.75;;;;;6.30;65.74;99109.66;5013773;28;8862;-73
2021/12/04 07:29:20;;;;;;;;;55.50;46.50;;;;;6.24;65.83;99107.88;4959833;28;8874;-73
2021/12/04 07:31:48;;;;;;;;;32.25;29.75;;;;;6.30;65.42;99095.84;5014237;28;8863;-74
2021/12/04 07:34:17;;;;;;;;;62.00;49.00;;;;;6.34;65.42;99107.97;5028448;28;8953;-73
2021/12/04 07:36:46;;;;;;;;;57.50;49.50;;;;;6.25;62.17;99114.78;5044324;28;8871;-74
2021/12/04 07:39:15;;;;;;;;;55.00;45.25;;;;;6.33;65.06;99099.34;5029323;28;8936;-74
2021/12/04 07:41:43;;;;;;;;;54.25;46.50;;;;;6.41;65.73;99094.22;5029206;28;8875;-74
2021/12/04 07:44:12;;;;;;;;;67.75;54.50;;;;;6.46;65.17;99102.03;4991740;28;8900;-72
2021/12/04 07:46:42;;;;;;;;;65.25;52.00;;;;;6.42;65.38;99101.13;5027824;28;9599;-73
2021/12/04 07:49:11;;;;;;;;;64.75;54.50;;;;;6.47;65.41;99099.44;5009805;28;9091;-73
2021/12/04 07:51:40;;;;;;;;;63.25;51.75;;;;;6.42;63.49;99099.41;4967770;28;9009;-75
2021/12/04 07:54:09;;;;;;;;;69.00;53.00;;;;;6.51;64.81;99082.22;4970793;28;8882;-75
2021/12/04 07:56:38;;;;;;;;;61.25;50.00;;;;;6.52;63.54;99076.16;4986213;28;8869;-74
2021/12/04 07:59:06;;;;;;;;;54.00;47.50;;;;;6.61;65.04;99081.41;4968149;28;8846;-74
2021/12/04 08:01:35;;;;;;;;;63.50;49.00;;;;;6.59;62.38;99090.91;4985152;28;8870;-74
2021/12/04 08:04:05;;;;;;;;;66.25;53.50;;;;;6.72;63.70;99086.69;4969700;28;8851;-74
2021/12/04 08:06:35;;;;;;;;;61.75;50.50;;;;;6.71;61.74;99090.13;4970194;28;8905;-73
2021/12/04 08:09:04;;;;;;;;;57.00;47.25;;;;;6.81;62.51;99090.22;4970529;28;8890;-73
2021/12/04 08:11:33;;;;;;;;;38.50;35.25;;;;;6.84;60.19;99081.59;4953611;28;9112;-75
2021/12/04 08:14:02;;;;;;;;;49.50;44.75;;;;;6.86;58.62;99077.28;4953630;28;8977;-73
2021/12/04 08:16:32;;;;;;;;;47.25;41.50;;;;;6.90;58.29;99084.25;4985350;28;8851;-73
2021/12/04 08:19:01;;;;;;;;;43.25;39.00;;;;;6.98;58.03;99082.56;4985784;28;8874;-74
2021/12/04 08:21:31;;;;;;;;;27.75;25.75;;;;;7.07;57.50;99083.47;4984931;28;10119;-74
2021/12/04 08:24:00;;;;;;;;;34.00;30.25;;;;;7.08;56.78;99074.84;5024000;28;9990;-74
2021/12/04 08:26:29;;;;;;;;;37.25;32.75;;;;;7.09;57.42;99085.22;5001963;28;8909;-74
2021/12/04 08:28:58;;;;;;;;;37.75;36.75;;;;;7.19;58.95;99076.63;5024730;28;9025;-74
2021/12/04 08:31:26;;;;;;;;;47.25;40.25;;;;;7.29;59.07;99082.72;5057402;28;8860;-76
2021/12/04 08:33:55;;;;;;;;;53.00;43.25;;;;;7.40;59.05;99077.59;5025558;28;8946;-72
2021/12/04 08:36:24;;;;;;;;;50.00;42.75;;;;;7.50;59.20;99075.91;5006470;28;13728;-74
2021/12/04 08:38:54;;;;;;;;;62.75;52.75;;;;;7.57;59.73;99062.09;5056525;28;8840;-73
2021/12/04 08:41:23;;;;;;;;;85.33;68.00;;;;;7.51;58.55;99069.88;5045688;28;8900;-73
2021/12/04 08:43:53;;;;;;;;;79.33;62.33;;;;;7.58;59.67;99069.91;5044930;28;9484;-73
2021/12/04 08:46:22;;;;;;;;;45.25;32.25;;;;;7.54;60.61;99062.09;5045965;28;8957;-74
2021/12/04 08:48:52;;;;;;;;;74.25;59.50;;;;;7.53;60.44;99058.63;5046240;28;8872;-70
2021/12/04 08:51:22;;;;;;;;;66.25;51.25;;;;;7.53;60.04;99065.56;5048470;28;8873;-72
2021/12/04 08:53:51;;;;;;;;;54.50;39.25;;;;;7.61;59.57;99062.09;5046611;28;9015;-70
2021/12/04 08:56:21;;;;;;;;;49.00;42.00;;;;;7.46;59.43;99059.47;5048045;28;8884;-70
2021/12/04 08:58:50;;;;;;;;;51.00;45.25;;;;;7.57;62.22;99052.59;5048187;28;8918;-71
2021/12/04 09:01:24;;;;;;;;;59.50;48.75;;;;;7.52;60.42;99056.03;5047792;28;8877;-73
2021/12/04 09:03:57;;;;;;;;;57.50;47.00;;;;;7.49;59.21;99043.91;5047124;28;8853;-72
2021/12/04 09:06:26;;;;;;;;;64.50;53.00;;;;;7.52;59.24;99048.25;5046690;28;8853;-71
2021/12/04 09:08:55;;;;;;;;;59.50;48.00;;;;;7.57;59.73;99041.34;5045522;28;8899;-71
2021/12/04 09:11:28;;;;;;;;;66.50;53.75;;;;;7.57;60.50;99033.56;5045194;28;9632;-71
2021/12/04 09:13:58;;;;;;;;;56.25;43.75;;;;;7.52;59.09;99027.47;5047659;28;8971;-74
2021/12/04 09:16:27;;;;;;;;;68.25;56.00;;;;;7.54;60.21;99018.88;5046970;28;8845;-73
2021/12/04 09:18:56;;;;;;;;;68.50;52.00;;;;;7.40;58.80;99013.63;5027992;28;8884;-71
2021/12/04 09:21:27;;;;;;;;;65.50;51.00;;;;;7.60;60.00;99018.88;5043987;28;8876;-70
2021/12/04 09:24:04;;;;;;;;;58.33;47.33;;;;;7.59;60.59;99018.88;5045734;28;8853;-72
2021/12/04 09:26:49;;;;;;;;;70.00;54.00;;;;;7.55;58.90;99025.78;5046276;28;8853;-70
2021/12/04 09:32:37;;;;;;;;;60.50;49.00;;;;;7.74;59.60;99013.72;4982880;28;8974;-70
2021/12/04 09:35:26;;;;;;;;;65.75;54.25;;;;;7.86;60.29;99015.47;4965319;28;8850;-71
2021/12/04 10:03:22;;;;;;;;;63.00;49.00;;;;;8.25;59.40;98959.22;4904852;29;8902;-71
2021/12/04 10:12:05;;;;;;;;;55.25;45.75;;;;;8.36;59.53;98941.03;4926458;29;8890;-72
2021/12/04 10:17:56;;;;;;;;;56.50;46.50;;;;;8.37;58.41;98942.75;4863832;29;8892;-72
2021/12/04 10:20:38;;;;;;;;;51.00;42.75;;;;;8.38;57.92;98929.78;4890981;29;8862;-71
2021/12/04 10:23:20;;;;;;;;;58.50;47.75;;;;;8.26;59.04;98914.22;4892178;29;8970;-71
2021/12/04 10:34:27;;;;;;;;;51.75;42.25;;;;;8.19;58.83;98870.94;4892353;29;8856;-70
2021/12/04 10:37:05;;;;;;;;;60.50;46.50;;;;;8.18;59.63;98867.50;4892274;29;8934;-71
2021/12/04 10:39:35;;;;;;;;;51.75;43.25;;;;;8.10;59.26;98855.38;4916758;28;8858;-72
2021/12/04 10:42:11;;;;;;;;;57.75;46.50;;;;;8.04;60.01;98860.59;4948845;28;8870;-72
2021/12/04 10:44:41;;;;;;;;;57.25;46.25;;;;;8.04;60.60;98864.03;4949642;28;8834;-71
2021/12/04 10:47:12;;;;;;;;;64.00;52.00;;;;;8.08;59.77;98860.56;4989543;28;8891;-72
2021/12/04 10:49:53;;;;;;;;;61.00;47.25;;;;;8.10;59.91;98858.81;5027070;28;8961;-74
2021/12/04 10:52:29;;;;;;;;;65.00;51.25;;;;;8.13;59.25;98845.00;5010954;28;8880;-74
2021/12/04 10:55:14;;;;;;;;;60.75;50.50;;;;;8.31;60.87;98850.13;5010711;28;8859;-72
2021/12/04 10:58:16;;;;;;;;;48.25;40.00;;;;;8.37;59.20;98859.63;5027268;28;9059;-70
2021/12/04 11:00:52;;;;;;;;;52.00;45.25;;;;;8.38;57.93;98845.78;5027233;28;8974;-73
2021/12/04 11:03:43;;;;;;;;;62.00;50.00;;;;;8.35;59.50;98846.63;5041792;28;8849;-75
2021/12/04 11:23:18;;;;;;;;;58.75;46.25;;;;;8.06;60.75;98828.53;4990923;28;9598;-73
2021/12/04 11:37:07;;;;;;;;;56.75;48.00;;;;;8.19;60.58;98817.25;4983537;28;8979;-71
2021/12/04 11:39:57;;;;;;;;;61.00;49.00;;;;;8.20;60.23;98823.31;4987503;28;8879;-74
2021/12/04 11:42:35;;;;;;;;;54.00;44.50;;;;;8.19;59.14;98817.25;4970835;28;8972;-70
2021/12/04 11:45:15;;;;;;;;;55.00;43.00;;;;;8.24;59.27;98803.38;4986895;28;8966;-72
2021/12/04 11:47:47;;;;;;;;;54.75;44.25;;;;;8.32;57.96;98799.06;4954604;28;8983;-75
2021/12/04 11:50:22;;;;;;;;;61.75;48.00;;;;;8.44;58.47;98785.19;4986415;28;8849;-75
2021/12/04 11:52:54;;;;;;;;;57.25;45.25;;;;;8.29;57.64;98792.13;4999169;28;9017;-72
2021/12/04 11:55:28;;;;;;;;;56.50;42.75;;;;;8.35;58.24;98781.69;5006407;28;8897;-77
2021/12/04 11:57:57;;;;;;;;;60.50;46.75;;;;;8.48;58.27;98768.69;5002917;28;8979;-76
2021/12/04 12:00:29;;;;;;;;;64.75;51.50;;;;;8.52;57.52;98767.81;5013945;28;9554;-75
2021/12/04 12:03:09;;;;;;;;;60.25;48.75;;;;;8.35;58.50;98760.06;4986193;28;8850;-76
2021/12/04 12:05:44;;;;;;;;;68.50;56.25;;;;;8.25;59.67;98768.78;4952257;28;8876;-76
2021/12/04 12:08:26;;;;;;;;;64.25;53.75;;;;;8.11;59.29;98763.59;4987054;28;8865;-77
2021/12/04 12:11:01;;;;;;;;;71.00;57.25;;;;;8.08;59.77;98772.28;4938295;28;8869;-80
2021/12/04 12:13:34;;;;;;;;;68.25;54.00;;;;;8.05;59.09;98764.50;4969638;28;9670;-76
2021/12/04 12:16:08;;;;;;;;;67.00;54.00;;;;;7.99;59.24;98759.31;4970186;28;8894;-76
2021/12/04 12:18:50;;;;;;;;;72.50;58.50;;;;;7.84;59.66;98755.03;4969805;28;8878;-79
2021/12/04 12:21:22;;;;;;;;;68.00;51.75;;;;;7.75;62.37;98742.06;4968131;28;8890;-79
2021/12/04 12:27:00;;;;;;;;;71.75;57.75;;;;;7.46;61.92;98735.22;4929509;28;8899;-75
2021/12/04 12:38:30;;;;;;;;;78.50;58.25;;;;;7.37;61.21;98720.53;5030594;28;8873;-76
2021/12/04 12:41:02;;;;;;;;;80.33;61.33;;;;;7.45;61.89;98722.22;4995337;28;9602;-82
2021/12/04 12:43:42;;;;;;;;;79.75;61.75;;;;;7.44;61.65;98716.19;5045735;28;8961;-76
2021/12/04 12:46:12;;;;;;;;;79.33;63.67;;;;;7.34;61.95;98715.34;5047834;28;8883;-78
2021/12/04 12:48:46;;;;;;;;;80.33;65.00;;;;;7.22;62.15;98710.16;5026987;28;9099;-77
2021/12/04 12:51:23;;;;;;;;;71.50;58.25;;;;;7.12;62.08;98704.09;5046278;28;9106;-77
2021/12/04 12:53:52;;;;;;;;;74.00;58.25;;;;;7.38;61.87;98701.50;5041878;28;8884;-80
2021/12/04 12:56:26;;;;;;;;;67.00;53.75;;;;;7.27;60.77;98697.19;5046592;28;8977;-76
2021/12/04 12:59:00;;;;;;;;;61.75;52.50;;;;;7.33;60.05;98694.59;5026580;28;8977;-78
2021/12/04 13:13:29;;;;;;;;;43.00;37.50;;;;;7.47;58.75;98703.22;5044133;28;9093;-76
2021/12/04 13:16:07;;;;;;;;;38.00;38.00;;;;;7.51;57.58;98714.47;5012608;28;8898;-77
2021/12/04 13:18:37;;;;;;;;;47.25;39.25;;;;;7.56;59.02;98718.78;5028623;28;8862;-75
2021/12/04 13:21:09;;;;;;;;;41.25;36.00;;;;;7.72;57.86;98716.16;5044120;28;8871;-75
2021/12/04 13:23:39;;;;;;;;;42.00;40.00;;;;;7.73;56.86;98721.34;5043588;28;8881;-76
2021/12/04 13:26:10;;;;;;;;;45.75;39.50;;;;;7.61;57.49;98719.59;5029402;28;8856;-75
2021/12/04 13:28:41;;;;;;;;;45.75;41.00;;;;;7.65;57.84;98712.69;4970632;28;8887;-76
2021/12/04 13:31:19;;;;;;;;;39.00;38.00;;;;;7.81;57.69;98711.78;4976718;28;8856;-76
2021/12/04 13:33:49;;;;;;;;;42.00;38.75;;;;;7.86;57.67;98710.91;4931555;28;9106;-76
2021/12/04 13:36:21;;;;;;;;;43.00;35.75;;;;;7.89;57.82;98714.34;4963003;28;8885;-76
2021/12/04 13:38:56;;;;;;;;;51.50;40.75;;;;;7.94;58.15;98710.03;4968065;28;8886;-81
2021/12/04 13:41:27;;;;;;;;;49.75;40.00;;;;;7.89;58.39;98721.28;4990515;28;8862;-78
2021/12/04 13:43:58;;;;;;;;;55.50;46.50;;;;;7.96;58.52;98708.28;4964521;28;8850;-79
2021/12/04 13:46:28;;;;;;;;;50.50;41.25;;;;;7.97;58.47;98699.59;4975321;28;8872;-77
2021/12/04 13:49:01;;;;;;;;;54.25;45.00;;;;;7.83;57.97;98704.00;4956816;28;8858;-76
2021/12/04 13:51:31;;;;;;;;;48.25;42.75;;;;;7.86;57.11;98703.13;4972750;28;8860;-79
2021/12/04 13:54:02;;;;;;;;;48.50;41.75;;;;;7.80;57.49;98699.66;4956413;28;8847;-77
2021/12/04 13:56:32;;;;;;;;;47.75;42.00;;;;;7.75;58.74;98698.84;4995008;28;9123;-74
2021/12/04 13:59:07;;;;;;;;;45.75;40.00;;;;;7.78;57.65;98692.75;4981418;28;8862;-76
2021/12/04 14:01:42;;;;;;;;;46.00;40.25;;;;;7.77;58.17;98699.69;5030023;28;8888;-75
2021/12/04 14:04:17;;;;;;;;;57.75;43.75;;;;;7.73;58.67;98697.09;5013760;28;8856;-78
2021/12/04 14:06:52;;;;;;;;;58.75;49.25;;;;;7.73;59.66;98692.78;5008236;28;8846;-78
2021/12/04 14:09:23;;;;;;;;;48.75;40.25;;;;;7.68;59.31;98684.16;5008866;28;8886;-78
2021/12/04 14:11:55;;;;;;;;;48.50;41.75;;;;;7.57;59.76;98684.16;4990935;28;8886;-78
2021/12/04 14:14:28;;;;;;;;;51.00;44.00;;;;;7.64;59.94;98692.81;5027303;28;8878;-77
2021/12/04 14:17:06;;;;;;;;;49.00;41.75;;;;;7.67;60.29;98687.59;5008068;28;8926;-76
2021/12/04 14:19:36;;;;;;;;;47.50;41.00;;;;;7.74;60.55;98685.88;5005699;28;8842;-75
2021/12/04 14:22:08;;;;;;;;;52.50;42.50;;;;;7.70;58.74;98682.41;5004714;28;9004;-77